sensor_id;sensor_type;location;lat;lon;timestamp;temperature;humidity
1702;DHT22;848;48.354;10.064;2023-05-07T00:00:47;12.50;99.90
1702;DHT22;848;48.354;10.064;2023-05-07T00:03:15;12.50;99.90
1702;DHT22;848;48.354;10.064;2023-05-07T00:05:43;12.40;99.90
1702;DHT22;848;48.354;10.064;2023-05-07T00:08:10;12.40;99.90
1702;DHT22;848;48.354;10.064;2023-05-07T00:10:37;12.40;99.90
1702;DHT22;848;48.354;10.064;2023-05-07T00:13:04;12.40;99.90
1702;DHT22;848;48.354;10.064;2023-05-07T00:15:31;12.40;99.90
1702;DHT22;848;48.354;10.064;2023-05-07T00:17:58;12.30;99.90
1702;DHT22;848;48.354;10.064;2023-05-07T00:20:25;12.30;99.90
1702;DHT22;848;48.354;10.064;2023-05-07T00:22:53;12.30;99.90
1702;DHT22;848;48.354;10.064;2023-05-07T00:25:20;12.30;99.90
1702;DHT22;848;48.354;10.064;2023-05-07T00:27:47;12.30;99.90
1702;DHT22;848;48.354;10.064;2023-05-07T00:30:14;12.30;99.90
1702;DHT22;848;48.354;10.064;2023-05-07T00:32:41;12.20;99.90
1702;DHT22;848;48.354;10.064;2023-05-07T00:35:11;12.30;99.90
1702;DHT22;848;48.354;10.064;2023-05-07T00:37:38;12.30;99.90
1702;DHT22;848;48.354;10.064;2023-05-07T00:40:07;12.20;99.90
1702;DHT22;848;48.354;10.064;2023-05-07T00:42:35;12.20;99.90
1702;DHT22;848;48.354;10.064;2023-05-07T00:45:02;12.20;99.90
1702;DHT22;848;48.354;10.064;2023-05-07T00:47:29;12.10;99.90
1702;DHT22;848;48.354;10.064;2023-05-07T00:49:57;12.10;99.90
1702;DHT22;848;48.354;10.064;2023-05-07T00:52:25;12.10;99.90
1702;DHT22;848;48.354;10.064;2023-05-07T00:54:53;12.00;99.90
1702;DHT22;848;48.354;10.064;2023-05-07T00:57:21;12.00;99.90
1702;DHT22;848;48.354;10.064;2023-05-07T00:59:51;12.00;99.90
1702;DHT22;848;48.354;10.064;2023-05-07T01:02:18;12.00;99.90
1702;DHT22;848;48.354;10.064;2023-05-07T01:04:45;12.00;99.90
1702;DHT22;848;48.354;10.064;2023-05-07T01:07:12;11.90;99.90
1702;DHT22;848;48.354;10.064;2023-05-07T01:09:40;11.90;99.90
1702;DHT22;848;48.354;10.064;2023-05-07T01:12:07;11.90;99.90
1702;DHT22;848;48.354;10.064;2023-05-07T01:14:36;11.90;99.90
1702;DHT22;848;48.354;10.064;2023-05-07T01:17:03;11.80;99.90
1702;DHT22;848;48.354;10.064;2023-05-07T01:19:31;11.90;99.90
1702;DHT22;848;48.354;10.064;2023-05-07T01:22:03;11.90;99.90
1702;DHT22;848;48.354;10.064;2023-05-07T01:24:32;11.90;99.90
1702;DHT22;848;48.354;10.064;2023-05-07T01:26:59;11.90;99.90
1702;DHT22;848;48.354;10.064;2023-05-07T01:29:28;11.80;99.90
1702;DHT22;848;48.354;10.064;2023-05-07T01:31:57;11.80;99.90
1702;DHT22;848;48.354;10.064;2023-05-07T01:34:25;11.90;99.90
1702;DHT22;848;48.354;10.064;2023-05-07T01:36:54;11.90;99.90
1702;DHT22;848;48.354;10.064;2023-05-07T01:39:25;11.90;99.90
1702;DHT22;848;48.354;10.064;2023-05-07T01:41:54;11.80;99.90
1702;DHT22;848;48.354;10.064;2023-05-07T01:44:22;11.80;99.90
1702;DHT22;848;48.354;10.064;2023-05-07T01:46:49;11.80;99.90
1702;DHT22;848;48.354;10.064;2023-05-07T01:49:16;11.80;99.90
1702;DHT22;848;48.354;10.064;2023-05-07T01:51:44;11.80;99.90
1702;DHT22;848;48.354;10.064;2023-05-07T01:54:10;11.90;99.90
1702;DHT22;848;48.354;10.064;2023-05-07T01:56:37;11.90;99.90
1702;DHT22;848;48.354;10.064;2023-05-07T01:59:06;11.80;99.90
1702;DHT22;848;48.354;10.064;2023-05-07T02:01:33;11.80;99.90
1702;DHT22;848;48.354;10.064;2023-05-07T02:04:00;11.90;99.90
1702;DHT22;848;48.354;10.064;2023-05-07T02:06:27;11.90;99.90
1702;DHT22;848;48.354;10.064;2023-05-07T02:08:53;11.90;99.90
1702;DHT22;848;48.354;10.064;2023-05-07T02:11:20;11.90;99.90
1702;DHT22;848;48.354;10.064;2023-05-07T02:13:47;11.90;99.90
1702;DHT22;848;48.354;10.064;2023-05-07T02:16:15;11.90;99.90
1702;DHT22;848;48.354;10.064;2023-05-07T02:18:42;11.80;99.90
1702;DHT22;848;48.354;10.064;2023-05-07T02:21:09;11.80;99.90
1702;DHT22;848;48.354;10.064;2023-05-07T02:23:36;11.80;99.90
1702;DHT22;848;48.354;10.064;2023-05-07T02:26:04;11.70;99.90
1702;DHT22;848;48.354;10.064;2023-05-07T02:28:31;11.70;99.90
1702;DHT22;848;48.354;10.064;2023-05-07T02:30:58;11.80;99.90
1702;DHT22;848;48.354;10.064;2023-05-07T02:33:27;11.80;99.90
1702;DHT22;848;48.354;10.064;2023-05-07T02:35:54;11.70;99.90
1702;DHT22;848;48.354;10.064;2023-05-07T02:38:21;11.70;99.90
1702;DHT22;848;48.354;10.064;2023-05-07T02:40:48;11.70;99.90
1702;DHT22;848;48.354;10.064;2023-05-07T02:43:16;11.60;99.90
1702;DHT22;848;48.354;10.064;2023-05-07T02:45:42;11.70;99.90
1702;DHT22;848;48.354;10.064;2023-05-07T02:48:09;11.60;99.90
1702;DHT22;848;48.354;10.064;2023-05-07T02:50:38;11.60;99.90
1702;DHT22;848;48.354;10.064;2023-05-07T02:53:04;11.60;99.90
1702;DHT22;848;48.354;10.064;2023-05-07T02:55:32;11.60;99.90
1702;DHT22;848;48.354;10.064;2023-05-07T02:57:59;11.60;99.90
1702;DHT22;848;48.354;10.064;2023-05-07T03:00:25;11.60;99.90
1702;DHT22;848;48.354;10.064;2023-05-07T03:02:52;11.60;99.90
1702;DHT22;848;48.354;10.064;2023-05-07T03:05:19;11.60;99.90
1702;DHT22;848;48.354;10.064;2023-05-07T03:07:48;11.50;99.90
1702;DHT22;848;48.354;10.064;2023-05-07T03:10:14;11.50;99.90
1702;DHT22;848;48.354;10.064;2023-05-07T03:12:41;11.40;99.90
1702;DHT22;848;48.354;10.064;2023-05-07T03:15:09;11.40;99.90
1702;DHT22;848;48.354;10.064;2023-05-07T03:17:37;11.30;99.90
1702;DHT22;848;48.354;10.064;2023-05-07T03:20:05;11.30;99.90
1702;DHT22;848;48.354;10.064;2023-05-07T03:22:32;11.20;99.90
1702;DHT22;848;48.354;10.064;2023-05-07T03:25:00;11.20;99.90
1702;DHT22;848;48.354;10.064;2023-05-07T03:27:27;11.20;99.90
1702;DHT22;848;48.354;10.064;2023-05-07T03:29:54;11.10;99.90
1702;DHT22;848;48.354;10.064;2023-05-07T03:32:21;11.10;99.90
1702;DHT22;848;48.354;10.064;2023-05-07T03:34:48;11.00;99.90
1702;DHT22;848;48.354;10.064;2023-05-07T03:37:15;11.00;99.90
1702;DHT22;848;48.354;10.064;2023-05-07T03:39:42;11.00;99.90
1702;DHT22;848;48.354;10.064;2023-05-07T03:42:10;11.00;99.90
1702;DHT22;848;48.354;10.064;2023-05-07T03:44:37;11.00;99.90
1702;DHT22;848;48.354;10.064;2023-05-07T03:47:04;11.00;99.90
1702;DHT22;848;48.354;10.064;2023-05-07T03:49:31;10.90;99.90
1702;DHT22;848;48.354;10.064;2023-05-07T03:51:58;10.90;99.90
1702;DHT22;848;48.354;10.064;2023-05-07T03:54:25;11.10;99.90
1702;DHT22;848;48.354;10.064;2023-05-07T03:56:51;10.90;99.90
1702;DHT22;848;48.354;10.064;2023-05-07T03:59:20;10.90;99.90
1702;DHT22;848;48.354;10.064;2023-05-07T04:01:47;10.80;99.90
1702;DHT22;848;48.354;10.064;2023-05-07T04:04:14;10.80;99.90
1702;DHT22;848;48.354;10.064;2023-05-07T04:06:41;10.80;99.90
1702;DHT22;848;48.354;10.064;2023-05-07T04:09:08;10.80;99.90
1702;DHT22;848;48.354;10.064;2023-05-07T04:11:35;10.90;99.90
1702;DHT22;848;48.354;10.064;2023-05-07T04:14:02;10.90;99.90
1702;DHT22;848;48.354;10.064;2023-05-07T04:16:30;10.80;99.90
1702;DHT22;848;48.354;10.064;2023-05-07T04:18:57;10.80;99.90
1702;DHT22;848;48.354;10.064;2023-05-07T04:21:24;10.80;99.90
1702;DHT22;848;48.354;10.064;2023-05-07T04:23:52;10.80;99.90
1702;DHT22;848;48.354;10.064;2023-05-07T04:26:18;10.80;99.90
1702;DHT22;848;48.354;10.064;2023-05-07T04:28:46;10.80;99.90
1702;DHT22;848;48.354;10.064;2023-05-07T04:31:13;10.80;99.90
1702;DHT22;848;48.354;10.064;2023-05-07T04:33:42;10.80;99.90
1702;DHT22;848;48.354;10.064;2023-05-07T04:36:09;10.90;99.90
1702;DHT22;848;48.354;10.064;2023-05-07T04:38:36;10.90;99.90
1702;DHT22;848;48.354;10.064;2023-05-07T04:41:05;10.90;99.90
1702;DHT22;848;48.354;10.064;2023-05-07T04:43:32;11.00;99.90
1702;DHT22;848;48.354;10.064;2023-05-07T04:45:59;11.00;99.90
1702;DHT22;848;48.354;10.064;2023-05-07T04:48:26;11.00;99.90
1702;DHT22;848;48.354;10.064;2023-05-07T04:50:55;11.00;99.90
1702;DHT22;848;48.354;10.064;2023-05-07T04:53:22;11.00;99.90
1702;DHT22;848;48.354;10.064;2023-05-07T04:55:55;11.10;99.90
1702;DHT22;848;48.354;10.064;2023-05-07T04:58:22;11.10;99.90
1702;DHT22;848;48.354;10.064;2023-05-07T05:00:49;11.20;99.90
1702;DHT22;848;48.354;10.064;2023-05-07T05:03:16;11.30;99.90
1702;DHT22;848;48.354;10.064;2023-05-07T05:05:43;11.30;99.90
1702;DHT22;848;48.354;10.064;2023-05-07T05:08:11;11.30;99.90
1702;DHT22;848;48.354;10.064;2023-05-07T05:10:38;11.40;99.90
1702;DHT22;848;48.354;10.064;2023-05-07T05:13:06;11.50;99.90
1702;DHT22;848;48.354;10.064;2023-05-07T05:15:33;11.60;99.90
1702;DHT22;848;48.354;10.064;2023-05-07T05:18:00;11.70;99.90
1702;DHT22;848;48.354;10.064;2023-05-07T05:20:27;11.80;99.90
1702;DHT22;848;48.354;10.064;2023-05-07T05:22:54;11.90;99.90
1702;DHT22;848;48.354;10.064;2023-05-07T05:25:22;11.90;99.90
1702;DHT22;848;48.354;10.064;2023-05-07T05:27:49;12.00;99.90
1702;DHT22;848;48.354;10.064;2023-05-07T05:30:16;12.10;99.90
1702;DHT22;848;48.354;10.064;2023-05-07T05:32:43;12.20;99.90
1702;DHT22;848;48.354;10.064;2023-05-07T05:35:10;12.30;99.90
1702;DHT22;848;48.354;10.064;2023-05-07T05:37:37;12.40;99.90
1702;DHT22;848;48.354;10.064;2023-05-07T05:40:04;12.50;99.90
1702;DHT22;848;48.354;10.064;2023-05-07T05:42:33;12.60;99.90
1702;DHT22;848;48.354;10.064;2023-05-07T05:45:00;12.70;99.90
1702;DHT22;848;48.354;10.064;2023-05-07T05:47:26;12.70;99.90
1702;DHT22;848;48.354;10.064;2023-05-07T05:49:53;12.80;99.90
1702;DHT22;848;48.354;10.064;2023-05-07T05:52:20;12.90;99.90
1702;DHT22;848;48.354;10.064;2023-05-07T05:54:49;13.00;99.90
1702;DHT22;848;48.354;10.064;2023-05-07T05:57:16;13.10;99.90
1702;DHT22;848;48.354;10.064;2023-05-07T05:59:44;13.20;99.90
1702;DHT22;848;48.354;10.064;2023-05-07T06:02:12;13.20;99.90
1702;DHT22;848;48.354;10.064;2023-05-07T06:04:39;13.30;99.90
1702;DHT22;848;48.354;10.064;2023-05-07T06:07:08;13.30;99.90
1702;DHT22;848;48.354;10.064;2023-05-07T06:09:34;13.40;99.90
1702;DHT22;848;48.354;10.064;2023-05-07T06:12:01;13.60;99.90
1702;DHT22;848;48.354;10.064;2023-05-07T06:14:28;13.70;99.90
1702;DHT22;848;48.354;10.064;2023-05-07T06:16:56;13.80;99.90
1702;DHT22;848;48.354;10.064;2023-05-07T06:19:23;13.90;99.90
1702;DHT22;848;48.354;10.064;2023-05-07T06:21:52;14.00;99.90
1702;DHT22;848;48.354;10.064;2023-05-07T06:24:19;14.20;99.90
1702;DHT22;848;48.354;10.064;2023-05-07T06:26:45;14.30;99.90
1702;DHT22;848;48.354;10.064;2023-05-07T06:29:12;14.30;99.90
1702;DHT22;848;48.354;10.064;2023-05-07T06:31:39;14.40;99.90
1702;DHT22;848;48.354;10.064;2023-05-07T06:34:07;14.40;99.90
1702;DHT22;848;48.354;10.064;2023-05-07T06:36:34;14.60;99.90
1702;DHT22;848;48.354;10.064;2023-05-07T06:39:01;14.60;99.90
1702;DHT22;848;48.354;10.064;2023-05-07T06:41:28;14.60;99.90
1702;DHT22;848;48.354;10.064;2023-05-07T06:43:55;14.60;99.90
1702;DHT22;848;48.354;10.064;2023-05-07T06:46:22;14.60;99.90
1702;DHT22;848;48.354;10.064;2023-05-07T06:48:49;14.70;99.90
1702;DHT22;848;48.354;10.064;2023-05-07T06:51:17;14.80;99.90
1702;DHT22;848;48.354;10.064;2023-05-07T06:53:44;14.90;99.90
1702;DHT22;848;48.354;10.064;2023-05-07T06:56:11;15.10;99.90
1702;DHT22;848;48.354;10.064;2023-05-07T06:58:38;15.20;99.90
1702;DHT22;848;48.354;10.064;2023-05-07T07:01:04;15.20;99.90
1702;DHT22;848;48.354;10.064;2023-05-07T07:03:31;15.30;99.90
1702;DHT22;848;48.354;10.064;2023-05-07T07:05:58;15.50;99.90
1702;DHT22;848;48.354;10.064;2023-05-07T07:08:28;15.60;99.90
1702;DHT22;848;48.354;10.064;2023-05-07T07:10:55;15.70;99.90
1702;DHT22;848;48.354;10.064;2023-05-07T07:13:22;15.80;99.90
1702;DHT22;848;48.354;10.064;2023-05-07T07:15:49;16.00;99.90
1702;DHT22;848;48.354;10.064;2023-05-07T07:18:16;16.20;99.90
1702;DHT22;848;48.354;10.064;2023-05-07T07:20:43;16.40;99.90
1702;DHT22;848;48.354;10.064;2023-05-07T07:23:10;16.60;99.90
1702;DHT22;848;48.354;10.064;2023-05-07T07:25:39;16.80;99.90
1702;DHT22;848;48.354;10.064;2023-05-07T07:28:06;16.90;99.90
1702;DHT22;848;48.354;10.064;2023-05-07T07:30:33;17.00;99.90
1702;DHT22;848;48.354;10.064;2023-05-07T07:33:00;17.10;99.90
1702;DHT22;848;48.354;10.064;2023-05-07T07:35:28;17.20;99.90
1702;DHT22;848;48.354;10.064;2023-05-07T07:37:55;17.30;99.90
1702;DHT22;848;48.354;10.064;2023-05-07T07:40:22;17.50;99.90
1702;DHT22;848;48.354;10.064;2023-05-07T07:42:52;17.80;99.90
1702;DHT22;848;48.354;10.064;2023-05-07T07:45:19;17.90;99.90
1702;DHT22;848;48.354;10.064;2023-05-07T07:47:47;17.90;99.90
1702;DHT22;848;48.354;10.064;2023-05-07T07:50:14;17.80;99.90
1702;DHT22;848;48.354;10.064;2023-05-07T07:52:41;17.90;99.90
1702;DHT22;848;48.354;10.064;2023-05-07T07:55:08;18.00;99.90
1702;DHT22;848;48.354;10.064;2023-05-07T07:57:35;18.20;99.90
1702;DHT22;848;48.354;10.064;2023-05-07T08:00:05;18.40;99.90
1702;DHT22;848;48.354;10.064;2023-05-07T08:02:32;18.60;99.90
1702;DHT22;848;48.354;10.064;2023-05-07T08:04:59;19.00;99.90
1702;DHT22;848;48.354;10.064;2023-05-07T08:07:26;19.20;99.90
1702;DHT22;848;48.354;10.064;2023-05-07T08:09:53;19.20;99.90
1702;DHT22;848;48.354;10.064;2023-05-07T08:12:20;19.40;99.90
1702;DHT22;848;48.354;10.064;2023-05-07T08:14:47;19.60;99.90
1702;DHT22;848;48.354;10.064;2023-05-07T08:17:15;19.90;99.90
1702;DHT22;848;48.354;10.064;2023-05-07T08:19:42;20.10;99.90
1702;DHT22;848;48.354;10.064;2023-05-07T08:22:10;20.40;99.90
1702;DHT22;848;48.354;10.064;2023-05-07T08:24:37;20.50;99.90
1702;DHT22;848;48.354;10.064;2023-05-07T08:27:04;20.30;99.90
1702;DHT22;848;48.354;10.064;2023-05-07T08:29:31;20.00;99.90
1702;DHT22;848;48.354;10.064;2023-05-07T08:31:58;20.10;99.90
1702;DHT22;848;48.354;10.064;2023-05-07T08:34:26;20.30;99.90
1702;DHT22;848;48.354;10.064;2023-05-07T08:36:53;20.50;99.90
1702;DHT22;848;48.354;10.064;2023-05-07T08:39:20;20.50;99.90
1702;DHT22;848;48.354;10.064;2023-05-07T08:41:48;20.70;99.90
1702;DHT22;848;48.354;10.064;2023-05-07T08:44:21;20.70;99.90
1702;DHT22;848;48.354;10.064;2023-05-07T08:46:50;20.90;99.90
1702;DHT22;848;48.354;10.064;2023-05-07T08:49:20;20.80;99.90
1702;DHT22;848;48.354;10.064;2023-05-07T08:51:48;20.80;99.90
1702;DHT22;848;48.354;10.064;2023-05-07T08:54:16;20.70;99.90
1702;DHT22;848;48.354;10.064;2023-05-07T08:56:43;20.60;99.90
1702;DHT22;848;48.354;10.064;2023-05-07T08:59:10;20.50;99.90
1702;DHT22;848;48.354;10.064;2023-05-07T09:01:37;20.70;99.90
1702;DHT22;848;48.354;10.064;2023-05-07T09:04:04;20.70;99.90
1702;DHT22;848;48.354;10.064;2023-05-07T09:06:32;20.90;99.90
1702;DHT22;848;48.354;10.064;2023-05-07T09:09:01;20.90;99.90
1702;DHT22;848;48.354;10.064;2023-05-07T09:11:30;21.10;99.90
1702;DHT22;848;48.354;10.064;2023-05-07T09:13:58;20.90;99.90
1702;DHT22;848;48.354;10.064;2023-05-07T09:16:29;21.00;99.90
1702;DHT22;848;48.354;10.064;2023-05-07T09:18:58;21.10;99.90
1702;DHT22;848;48.354;10.064;2023-05-07T09:21:25;21.10;99.90
1702;DHT22;848;48.354;10.064;2023-05-07T09:23:54;21.00;99.90
1702;DHT22;848;48.354;10.064;2023-05-07T09:26:23;21.00;99.90
1702;DHT22;848;48.354;10.064;2023-05-07T09:28:50;20.80;99.90
1702;DHT22;848;48.354;10.064;2023-05-07T09:31:17;20.70;99.90
1702;DHT22;848;48.354;10.064;2023-05-07T09:33:44;20.60;99.90
1702;DHT22;848;48.354;10.064;2023-05-07T09:36:11;20.60;99.90
1702;DHT22;848;48.354;10.064;2023-05-07T09:38:38;20.70;99.90
1702;DHT22;848;48.354;10.064;2023-05-07T09:41:07;20.80;99.90
1702;DHT22;848;48.354;10.064;2023-05-07T09:43:36;20.80;99.90
1702;DHT22;848;48.354;10.064;2023-05-07T09:46:07;20.90;99.90
1702;DHT22;848;48.354;10.064;2023-05-07T09:48:40;21.00;99.90
1702;DHT22;848;48.354;10.064;2023-05-07T09:51:25;21.10;99.90
1702;DHT22;848;48.354;10.064;2023-05-07T09:53:53;21.10;99.90
1702;DHT22;848;48.354;10.064;2023-05-07T09:56:21;21.00;99.90
1702;DHT22;848;48.354;10.064;2023-05-07T09:58:51;20.90;99.90
1702;DHT22;848;48.354;10.064;2023-05-07T10:01:19;20.90;99.90
1702;DHT22;848;48.354;10.064;2023-05-07T10:03:49;21.00;99.90
1702;DHT22;848;48.354;10.064;2023-05-07T10:06:16;21.10;99.90
1702;DHT22;848;48.354;10.064;2023-05-07T10:08:44;21.20;99.90
1702;DHT22;848;48.354;10.064;2023-05-07T10:11:11;21.20;99.90
1702;DHT22;848;48.354;10.064;2023-05-07T10:13:40;21.20;99.90
1702;DHT22;848;48.354;10.064;2023-05-07T10:16:09;21.20;99.90
1702;DHT22;848;48.354;10.064;2023-05-07T10:18:37;21.00;99.90
1702;DHT22;848;48.354;10.064;2023-05-07T10:21:08;20.90;99.90
1702;DHT22;848;48.354;10.064;2023-05-07T10:23:38;21.00;99.90
1702;DHT22;848;48.354;10.064;2023-05-07T10:26:07;20.90;99.90
1702;DHT22;848;48.354;10.064;2023-05-07T10:28:38;20.90;99.90
1702;DHT22;848;48.354;10.064;2023-05-07T10:31:23;20.80;99.90
1702;DHT22;848;48.354;10.064;2023-05-07T10:33:54;21.10;99.90
1702;DHT22;848;48.354;10.064;2023-05-07T10:36:23;21.20;99.90
1702;DHT22;848;48.354;10.064;2023-05-07T10:38:50;21.10;99.90
1702;DHT22;848;48.354;10.064;2023-05-07T10:41:18;21.00;99.90
1702;DHT22;848;48.354;10.064;2023-05-07T10:43:45;21.00;99.90
1702;DHT22;848;48.354;10.064;2023-05-07T10:46:17;21.10;99.90
1702;DHT22;848;48.354;10.064;2023-05-07T10:49:06;21.00;99.90
1702;DHT22;848;48.354;10.064;2023-05-07T10:51:34;20.90;99.90
1702;DHT22;848;48.354;10.064;2023-05-07T10:54:22;20.80;99.90
1702;DHT22;848;48.354;10.064;2023-05-07T10:56:50;20.80;99.90
1702;DHT22;848;48.354;10.064;2023-05-07T10:59:31;20.80;99.90
1702;DHT22;848;48.354;10.064;2023-05-07T11:02:01;21.00;99.90
1702;DHT22;848;48.354;10.064;2023-05-07T11:04:29;21.20;99.90
1702;DHT22;848;48.354;10.064;2023-05-07T11:07:30;21.20;99.90
1702;DHT22;848;48.354;10.064;2023-05-07T11:10:02;21.20;99.90
1702;DHT22;848;48.354;10.064;2023-05-07T11:12:49;21.20;99.90
1702;DHT22;848;48.354;10.064;2023-05-07T11:15:40;21.00;99.90
1702;DHT22;848;48.354;10.064;2023-05-07T11:18:10;21.00;99.90
1702;DHT22;848;48.354;10.064;2023-05-07T11:20:49;21.10;99.90
1702;DHT22;848;48.354;10.064;2023-05-07T11:23:57;21.10;99.90
1702;DHT22;848;48.354;10.064;2023-05-07T11:26:29;21.20;99.90
1702;DHT22;848;48.354;10.064;2023-05-07T11:28:57;21.10;99.90
1702;DHT22;848;48.354;10.064;2023-05-07T11:31:27;21.20;99.90
1702;DHT22;848;48.354;10.064;2023-05-07T11:33:57;21.20;99.90
1702;DHT22;848;48.354;10.064;2023-05-07T11:36:24;21.30;99.90
1702;DHT22;848;48.354;10.064;2023-05-07T11:38:52;21.40;99.90
1702;DHT22;848;48.354;10.064;2023-05-07T11:41:19;21.30;99.90
1702;DHT22;848;48.354;10.064;2023-05-07T11:43:55;21.30;99.90
1702;DHT22;848;48.354;10.064;2023-05-07T11:46:22;21.40;99.90
1702;DHT22;848;48.354;10.064;2023-05-07T11:48:49;21.30;99.90
1702;DHT22;848;48.354;10.064;2023-05-07T11:51:21;21.10;99.90
1702;DHT22;848;48.354;10.064;2023-05-07T11:53:50;21.00;99.90
1702;DHT22;848;48.354;10.064;2023-05-07T11:56:18;20.80;99.90
1702;DHT22;848;48.354;10.064;2023-05-07T11:58:46;20.80;99.90
1702;DHT22;848;48.354;10.064;2023-05-07T12:01:14;20.90;99.90
1702;DHT22;848;48.354;10.064;2023-05-07T12:03:43;20.90;99.90
1702;DHT22;848;48.354;10.064;2023-05-07T12:06:11;21.00;99.90
1702;DHT22;848;48.354;10.064;2023-05-07T12:08:40;21.10;99.90
1702;DHT22;848;48.354;10.064;2023-05-07T12:11:08;21.10;99.90
1702;DHT22;848;48.354;10.064;2023-05-07T12:13:37;21.20;99.90
1702;DHT22;848;48.354;10.064;2023-05-07T12:16:05;21.30;99.90
1702;DHT22;848;48.354;10.064;2023-05-07T12:18:33;21.30;99.90
1702;DHT22;848;48.354;10.064;2023-05-07T12:21:01;21.30;99.90
1702;DHT22;848;48.354;10.064;2023-05-07T12:23:28;21.30;99.90
1702;DHT22;848;48.354;10.064;2023-05-07T12:25:57;21.30;99.90
1702;DHT22;848;48.354;10.064;2023-05-07T12:28:24;21.20;99.90
1702;DHT22;848;48.354;10.064;2023-05-07T12:30:52;21.20;99.90
1702;DHT22;848;48.354;10.064;2023-05-07T12:33:23;21.10;99.90
1702;DHT22;848;48.354;10.064;2023-05-07T12:35:50;21.10;99.90
1702;DHT22;848;48.354;10.064;2023-05-07T12:38:17;21.00;99.90
1702;DHT22;848;48.354;10.064;2023-05-07T12:40:45;21.00;99.90
1702;DHT22;848;48.354;10.064;2023-05-07T12:43:18;21.10;99.90
1702;DHT22;848;48.354;10.064;2023-05-07T12:45:46;21.10;99.90
1702;DHT22;848;48.354;10.064;2023-05-07T12:48:13;21.10;99.90
1702;DHT22;848;48.354;10.064;2023-05-07T12:50:40;21.20;99.90
1702;DHT22;848;48.354;10.064;2023-05-07T12:53:09;21.20;99.90
1702;DHT22;848;48.354;10.064;2023-05-07T12:55:42;21.20;99.90
1702;DHT22;848;48.354;10.064;2023-05-07T12:58:14;21.20;99.90
1702;DHT22;848;48.354;10.064;2023-05-07T13:00:43;21.20;99.90
1702;DHT22;848;48.354;10.064;2023-05-07T13:03:10;21.20;99.90
1702;DHT22;848;48.354;10.064;2023-05-07T13:05:37;21.20;99.90
1702;DHT22;848;48.354;10.064;2023-05-07T13:08:04;21.30;99.90
1702;DHT22;848;48.354;10.064;2023-05-07T13:10:32;21.30;99.90
1702;DHT22;848;48.354;10.064;2023-05-07T13:12:59;21.30;99.90
1702;DHT22;848;48.354;10.064;2023-05-07T13:15:26;21.20;99.90
1702;DHT22;848;48.354;10.064;2023-05-07T13:17:55;21.20;99.90
1702;DHT22;848;48.354;10.064;2023-05-07T13:20:22;21.20;99.90
1702;DHT22;848;48.354;10.064;2023-05-07T13:22:49;21.30;99.90
1702;DHT22;848;48.354;10.064;2023-05-07T13:25:16;21.30;99.90
1702;DHT22;848;48.354;10.064;2023-05-07T13:27:43;21.20;99.90
1702;DHT22;848;48.354;10.064;2023-05-07T13:30:10;21.10;99.90
1702;DHT22;848;48.354;10.064;2023-05-07T13:32:37;21.20;99.90
1702;DHT22;848;48.354;10.064;2023-05-07T13:35:07;21.10;99.90
1702;DHT22;848;48.354;10.064;2023-05-07T13:37:33;21.20;99.90
1702;DHT22;848;48.354;10.064;2023-05-07T13:40:01;21.20;99.90
1702;DHT22;848;48.354;10.064;2023-05-07T13:42:27;21.20;99.90
1702;DHT22;848;48.354;10.064;2023-05-07T13:44:54;21.20;99.90
1702;DHT22;848;48.354;10.064;2023-05-07T13:47:22;21.20;99.90
1702;DHT22;848;48.354;10.064;2023-05-07T13:49:49;21.20;99.90
1702;DHT22;848;48.354;10.064;2023-05-07T13:52:18;21.30;99.90
1702;DHT22;848;48.354;10.064;2023-05-07T13:54:45;21.30;99.90
1702;DHT22;848;48.354;10.064;2023-05-07T13:57:12;21.30;99.90
1702;DHT22;848;48.354;10.064;2023-05-07T13:59:40;21.20;99.90
1702;DHT22;848;48.354;10.064;2023-05-07T14:02:07;21.20;99.90
1702;DHT22;848;48.354;10.064;2023-05-07T14:04:34;21.10;99.90
1702;DHT22;848;48.354;10.064;2023-05-07T14:07:01;21.10;99.90
1702;DHT22;848;48.354;10.064;2023-05-07T14:09:30;21.00;99.90
1702;DHT22;848;48.354;10.064;2023-05-07T14:11:57;21.00;99.90
1702;DHT22;848;48.354;10.064;2023-05-07T14:14:24;20.90;99.90
1702;DHT22;848;48.354;10.064;2023-05-07T14:16:51;21.00;99.90
1702;DHT22;848;48.354;10.064;2023-05-07T14:19:18;21.00;99.90
1702;DHT22;848;48.354;10.064;2023-05-07T14:21:45;21.00;99.90
1702;DHT22;848;48.354;10.064;2023-05-07T14:24:12;20.90;99.90
1702;DHT22;848;48.354;10.064;2023-05-07T14:26:40;20.90;99.90
1702;DHT22;848;48.354;10.064;2023-05-07T14:29:07;20.90;99.90
1702;DHT22;848;48.354;10.064;2023-05-07T14:31:34;20.90;99.90
1702;DHT22;848;48.354;10.064;2023-05-07T14:34:01;20.90;99.90
1702;DHT22;848;48.354;10.064;2023-05-07T14:36:27;20.90;99.90
1702;DHT22;848;48.354;10.064;2023-05-07T14:38:55;20.90;99.90
1702;DHT22;848;48.354;10.064;2023-05-07T14:41:24;20.80;99.90
1702;DHT22;848;48.354;10.064;2023-05-07T14:43:53;20.80;99.90
1702;DHT22;848;48.354;10.064;2023-05-07T14:46:20;20.80;99.90
1702;DHT22;848;48.354;10.064;2023-05-07T14:48:47;20.80;99.90
1702;DHT22;848;48.354;10.064;2023-05-07T14:51:14;20.70;99.90
1702;DHT22;848;48.354;10.064;2023-05-07T14:53:41;20.70;99.90
1702;DHT22;848;48.354;10.064;2023-05-07T14:56:08;20.60;99.90
1702;DHT22;848;48.354;10.064;2023-05-07T14:58:35;20.60;99.90
1702;DHT22;848;48.354;10.064;2023-05-07T15:01:04;20.50;99.90
1702;DHT22;848;48.354;10.064;2023-05-07T15:03:31;20.40;99.90
1702;DHT22;848;48.354;10.064;2023-05-07T15:05:58;20.40;99.90
1702;DHT22;848;48.354;10.064;2023-05-07T15:08:24;20.30;99.90
1702;DHT22;848;48.354;10.064;2023-05-07T15:10:52;20.30;99.90
1702;DHT22;848;48.354;10.064;2023-05-07T15:13:19;20.30;99.90
1702;DHT22;848;48.354;10.064;2023-05-07T15:15:45;20.20;99.90
1702;DHT22;848;48.354;10.064;2023-05-07T15:18:14;20.20;99.90
1702;DHT22;848;48.354;10.064;2023-05-07T15:20:41;20.20;99.90
1702;DHT22;848;48.354;10.064;2023-05-07T15:23:09;20.20;99.90
1702;DHT22;848;48.354;10.064;2023-05-07T15:25:37;20.20;99.90
1702;DHT22;848;48.354;10.064;2023-05-07T15:28:04;20.10;99.90
1702;DHT22;848;48.354;10.064;2023-05-07T15:30:31;20.00;99.90
1702;DHT22;848;48.354;10.064;2023-05-07T15:32:58;20.00;99.90
1702;DHT22;848;48.354;10.064;2023-05-07T15:35:26;19.90;99.90
1702;DHT22;848;48.354;10.064;2023-05-07T15:37:53;19.90;99.90
1702;DHT22;848;48.354;10.064;2023-05-07T15:40:20;19.90;99.90
1702;DHT22;848;48.354;10.064;2023-05-07T15:42:47;19.80;99.90
1702;DHT22;848;48.354;10.064;2023-05-07T15:45:14;19.80;99.90
1702;DHT22;848;48.354;10.064;2023-05-07T15:47:41;19.80;99.90
1702;DHT22;848;48.354;10.064;2023-05-07T15:50:08;19.70;99.90
1702;DHT22;848;48.354;10.064;2023-05-07T15:52:37;19.60;99.90
1702;DHT22;848;48.354;10.064;2023-05-07T15:55:07;19.50;99.90
1702;DHT22;848;48.354;10.064;2023-05-07T15:57:34;19.40;99.90
1702;DHT22;848;48.354;10.064;2023-05-07T16:00:01;19.30;99.90
1702;DHT22;848;48.354;10.064;2023-05-07T16:02:33;19.20;99.90
1702;DHT22;848;48.354;10.064;2023-05-07T16:05:01;19.10;99.90
1702;DHT22;848;48.354;10.064;2023-05-07T16:07:28;18.50;99.90